createdAt,value
2022-09-28T00:00:12.944Z,9.02
2022-09-28T00:01:13.164Z,8.96
2022-09-28T00:02:13.562Z,8.93
2022-09-28T00:03:14.189Z,8.82
2022-09-28T00:04:13.816Z,8.81
2022-09-28T00:05:14.816Z,8.89
2022-09-28T00:06:15.436Z,8.86
2022-09-28T00:07:16.365Z,8.84
2022-09-28T00:08:16.711Z,8.82
2022-09-28T00:09:17.014Z,8.89
2022-09-28T00:10:17.710Z,8.9
2022-09-28T00:11:18.601Z,8.87
2022-09-28T00:12:19.217Z,8.79
2022-09-28T00:13:19.272Z,8.81
2022-09-28T00:14:20.463Z,8.86
2022-09-28T00:15:21.444Z,8.82
2022-09-28T00:16:21.916Z,8.82
2022-09-28T00:17:22.100Z,8.82
2022-09-28T00:18:22.737Z,8.84
2022-09-28T00:19:23.085Z,8.81
2022-09-28T00:20:24.286Z,8.86
2022-09-28T00:21:24.782Z,8.86
2022-09-28T00:22:24.692Z,8.86
2022-09-28T00:23:25.611Z,8.82
2022-09-28T00:24:29.686Z,8.9
2022-09-28T00:25:25.666Z,9
2022-09-28T00:26:26.551Z,8.99
2022-09-28T00:27:26.869Z,8.96
2022-09-28T00:28:27.209Z,8.82
2022-09-28T00:29:28.085Z,8.81
2022-09-28T00:30:28.998Z,8.95
2022-09-28T00:31:29.759Z,8.93
2022-09-28T00:32:29.565Z,8.9
2022-09-28T00:33:29.881Z,8.82
2022-09-28T00:34:31.089Z,8.81
2022-09-28T00:35:31.476Z,8.86
2022-09-28T00:36:32.694Z,8.87
2022-09-28T00:37:32.906Z,8.86
2022-09-28T00:38:33.531Z,8.81
2022-09-28T00:39:34.449Z,8.89
2022-09-28T00:40:34.678Z,8.87
2022-09-28T00:41:36.135Z,8.78
2022-09-28T00:42:36.446Z,8.84
2022-09-28T00:43:36.785Z,8.81
2022-09-28T00:44:37.686Z,8.86
2022-09-28T00:45:38.845Z,8.84
2022-09-28T00:46:38.914Z,8.87
2022-09-28T00:47:39.802Z,8.84
2022-09-28T00:48:40.130Z,8.84
2022-09-28T00:49:41.314Z,8.86
2022-09-28T00:50:42.239Z,8.82
2022-09-28T00:51:42.429Z,8.89
2022-09-28T00:52:42.337Z,8.9
2022-09-28T00:53:42.967Z,8.92
2022-09-28T00:54:43.161Z,8.77
2022-09-28T00:55:44.183Z,8.82
2022-09-28T00:56:44.398Z,8.72
2022-09-28T00:57:45.035Z,8.75
2022-09-28T00:58:45.589Z,8.71
2022-09-28T00:59:45.491Z,8.69
2022-09-28T01:00:46.356Z,8.69
2022-09-28T01:01:46.597Z,8.63
2022-09-28T01:02:46.692Z,8.64
2022-09-28T01:03:47.305Z,8.69
2022-09-28T01:04:47.940Z,8.61
2022-09-28T01:05:48.929Z,8.69
2022-09-28T01:06:49.120Z,8.63
2022-09-28T01:07:49.732Z,8.59
2022-09-28T01:08:50.951Z,8.64
2022-09-28T01:09:51.834Z,8.64
2022-09-28T01:10:52.171Z,8.59
2022-09-28T01:11:52.782Z,8.69
2022-09-28T01:12:53.408Z,8.66
2022-09-28T01:13:54.029Z,8.61
2022-09-28T01:14:54.209Z,8.63
2022-09-28T01:15:54.783Z,8.59
2022-09-28T01:16:55.395Z,8.59
2022-09-28T01:17:56.023Z,8.6
2022-09-28T01:18:56.635Z,8.61
2022-09-28T01:19:57.281Z,8.57
2022-09-28T01:20:57.898Z,8.61
2022-09-28T01:21:58.513Z,8.59
2022-09-28T01:22:59.123Z,8.63
2022-09-28T01:23:59.806Z,8.56
2022-09-28T01:25:01.002Z,8.68
2022-09-28T01:26:01.710Z,8.68
2022-09-28T01:27:02.339Z,8.68
2022-09-28T01:28:02.947Z,8.64
2022-09-28T01:29:03.581Z,8.68
2022-09-28T01:30:03.847Z,8.71
2022-09-28T01:31:04.066Z,8.64
2022-09-28T01:32:04.953Z,8.59
2022-09-28T01:33:05.150Z,8.59
2022-09-28T01:34:04.758Z,8.64
2022-09-28T01:35:06.258Z,8.64
2022-09-28T01:36:06.843Z,8.69
2022-09-28T01:37:07.466Z,8.6
2022-09-28T01:38:07.689Z,8.61
2022-09-28T01:39:08.341Z,8.64
2022-09-28T01:40:09.303Z,8.59
2022-09-28T01:41:10.502Z,8.63
2022-09-28T01:42:10.710Z,8.53
2022-09-28T01:43:10.919Z,8.57
2022-09-28T01:44:12.151Z,8.56
2022-09-28T01:45:12.066Z,8.49
2022-09-28T01:46:12.805Z,8.5
2022-09-28T01:47:13.399Z,8.56
2022-09-28T01:48:13.312Z,8.53
2022-09-28T01:49:13.827Z,8.59
2022-09-28T01:50:14.645Z,8.49
2022-09-28T01:51:14.840Z,8.57
2022-09-28T01:52:15.439Z,8.54
2022-09-28T01:53:15.769Z,8.52
2022-09-28T01:54:16.971Z,8.5
2022-09-28T01:55:16.899Z,8.42
2022-09-28T01:56:17.913Z,8.49
2022-09-28T01:57:18.125Z,8.41
2022-09-28T01:58:19.336Z,8.38
2022-09-28T01:59:20.505Z,8.52
2022-09-28T02:00:20.710Z,8.52
2022-09-28T02:01:22.021Z,8.42
2022-09-28T02:02:22.174Z,8.36
2022-09-28T02:03:22.726Z,8.44
2022-09-28T02:04:23.216Z,8.45
2022-09-28T02:05:23.148Z,8.41
2022-09-28T02:06:23.566Z,8.38
2022-09-28T02:07:23.750Z,8.36
2022-09-28T02:08:24.933Z,8.36
2022-09-28T02:09:25.281Z,8.45
2022-09-28T02:10:26.034Z,8.44
2022-09-28T02:11:26.971Z,8.38
2022-09-28T02:12:27.292Z,8.44
2022-09-28T02:13:28.197Z,8.39
2022-09-28T02:14:29.206Z,8.39
2022-09-28T02:15:30.376Z,8.18
2022-09-28T02:16:31.309Z,8.2
2022-09-28T02:17:32.018Z,8.02
2022-09-28T02:18:31.922Z,8.06
2022-09-28T02:19:32.528Z,8.08
2022-09-28T02:20:33.121Z,8.06
2022-09-28T02:21:34.059Z,8.08
2022-09-28T02:22:34.549Z,8.09
2022-09-28T02:23:34.734Z,8.03
2022-09-28T02:24:35.103Z,8.06
2022-09-28T02:25:36.054Z,8.09
2022-09-28T02:26:35.669Z,8.16
2022-09-28T02:27:36.299Z,8.21
2022-09-28T02:28:37.228Z,8.14
2022-09-28T02:29:38.158Z,8.17
2022-09-28T02:30:39.373Z,8.31
2022-09-28T02:31:39.777Z,8.26
2022-09-28T02:32:39.704Z,8.32
2022-09-28T02:33:40.325Z,8.31
2022-09-28T02:34:40.658Z,8.35
2022-09-28T02:35:41.298Z,8.34
2022-09-28T02:36:42.330Z,8.24
2022-09-28T02:37:42.817Z,8.35
2022-09-28T02:38:43.432Z,8.32
2022-09-28T02:39:43.362Z,8.35
2022-09-28T02:40:43.867Z,8.36
2022-09-28T02:41:43.932Z,8.31
2022-09-28T02:42:44.863Z,8.31
2022-09-28T02:43:45.752Z,8.38
2022-09-28T02:44:46.265Z,8.38
2022-09-28T02:45:46.908Z,8.45
2022-09-28T02:46:47.133Z,8.39
2022-09-28T02:47:47.054Z,8.35
2022-09-28T02:49:21.218Z,8.46
2022-09-28T02:49:47.619Z,8.39
2022-09-28T02:50:47.951Z,8.38
2022-09-28T02:51:48.560Z,8.44
2022-09-28T02:52:48.758Z,8.36
2022-09-28T02:53:49.678Z,8.45
2022-09-28T02:54:50.603Z,8.36
2022-09-28T02:55:50.789Z,8.46
2022-09-28T02:56:51.231Z,8.39
2022-09-28T02:57:52.140Z,8.39
2022-09-28T02:58:52.329Z,8.36
2022-09-28T02:59:52.265Z,8.41
2022-09-28T03:00:53.104Z,8.53
2022-09-28T03:01:54.408Z,8.6
2022-09-28T03:02:54.268Z,8.46
2022-09-28T03:03:55.505Z,8.36
2022-09-28T03:04:56.170Z,8.36
2022-09-28T03:05:57.061Z,8.36
2022-09-28T03:06:57.184Z,8.36
2022-09-28T03:07:58.372Z,8.38
2022-09-28T03:08:59.258Z,8.24
2022-09-28T03:10:00.245Z,8.32
2022-09-28T03:11:00.577Z,8.34
2022-09-28T03:12:01.191Z,8.32
2022-09-28T03:13:00.828Z,8.34
2022-09-28T03:14:01.720Z,8.41
2022-09-28T03:15:02.461Z,8.42
2022-09-28T03:16:03.851Z,8.42
2022-09-28T03:17:04.557Z,8.38
2022-09-28T03:18:04.495Z,8.39
2022-09-28T03:19:05.688Z,8.39
2022-09-28T03:20:06.174Z,8.52
2022-09-28T03:21:06.783Z,8.49
2022-09-28T03:22:07.697Z,8.5
2022-09-28T03:23:31.890Z,8.5
2022-09-28T03:24:09.383Z,8.64
2022-09-28T03:25:09.326Z,8.5
2022-09-28T03:26:09.942Z,8.63
2022-09-28T03:27:10.064Z,8.61
2022-09-28T03:28:10.674Z,8.57
2022-09-28T03:29:11.201Z,8.63
2022-09-28T03:30:12.530Z,8.52
2022-09-28T03:31:13.029Z,8.53
2022-09-28T03:32:13.087Z,8.69
2022-09-28T03:33:13.606Z,8.6
2022-09-28T03:34:14.218Z,8.61
2022-09-28T03:35:14.856Z,8.72
2022-09-28T03:36:15.758Z,8.61
2022-09-28T03:37:16.840Z,8.77
2022-09-28T03:38:17.461Z,8.74
2022-09-28T03:39:18.145Z,8.77
2022-09-28T03:40:18.031Z,8.75
2022-09-28T03:41:18.105Z,8.72
2022-09-28T03:42:18.992Z,8.79
2022-09-28T03:43:19.481Z,8.81
2022-09-28T03:44:19.381Z,8.77
2022-09-28T03:45:20.055Z,8.75
2022-09-28T03:46:20.393Z,8.77
2022-09-28T03:47:20.854Z,8.75
2022-09-28T03:48:28.778Z,8.79
2022-09-28T03:49:22.236Z,8.82
2022-09-28T03:50:22.277Z,8.78
2022-09-28T03:51:22.906Z,8.75
2022-09-28T03:52:24.102Z,8.75
2022-09-28T03:53:23.994Z,8.75
2022-09-28T03:54:24.320Z,8.78
2022-09-28T03:55:24.965Z,8.75
2022-09-28T03:56:25.299Z,8.81
2022-09-28T03:57:26.885Z,8.87
2022-09-28T03:58:26.817Z,8.82
2022-09-28T03:59:27.437Z,8.77
2022-09-28T04:00:28.650Z,8.79
2022-09-28T04:01:29.142Z,8.84
2022-09-28T04:02:29.960Z,8.79
2022-09-28T04:03:30.274Z,8.92
2022-09-28T04:04:30.582Z,8.86
2022-09-28T04:05:31.515Z,8.87
2022-09-28T04:06:32.128Z,8.87
2022-09-28T04:07:37.022Z,8.82
2022-09-28T04:08:33.635Z,8.82
2022-09-28T04:09:34.822Z,8.81
2022-09-28T04:10:34.749Z,8.79
2022-09-28T04:12:04.647Z,8.84
2022-09-28T04:12:35.623Z,8.86
2022-09-28T04:13:36.108Z,8.81
2022-09-28T04:14:36.701Z,8.84
2022-09-28T04:15:37.334Z,8.79
2022-09-28T04:16:39.125Z,8.82
2022-09-28T04:17:44.889Z,8.84
2022-09-28T04:18:40.108Z,8.77
2022-09-28T04:19:40.031Z,8.82
2022-09-28T04:20:40.930Z,8.78
2022-09-28T04:21:41.553Z,8.77
2022-09-28T04:22:42.050Z,8.82
2022-09-28T04:23:42.255Z,8.77
2022-09-28T04:24:42.869Z,8.81
2022-09-28T04:25:43.516Z,8.79
2022-09-28T04:26:44.428Z,8.81
2022-09-28T04:27:45.715Z,8.82
2022-09-28T04:28:46.597Z,8.78
2022-09-28T04:29:47.205Z,8.78
2022-09-28T04:30:47.865Z,8.75
2022-09-28T04:31:49.067Z,8.79
2022-09-28T04:32:49.249Z,8.78
2022-09-28T04:33:49.184Z,8.79
2022-09-28T04:34:50.346Z,8.75
2022-09-28T04:35:50.698Z,8.74
2022-09-28T04:36:51.617Z,8.79
2022-09-28T04:37:52.213Z,8.75
2022-09-28T04:39:00.178Z,8.75
2022-09-28T04:39:54.619Z,8.84
2022-09-28T04:40:53.766Z,8.74
2022-09-28T04:41:53.749Z,8.78
2022-09-28T04:42:54.676Z,8.81
2022-09-28T04:43:55.288Z,8.84
2022-09-28T04:44:55.591Z,8.74
2022-09-28T04:45:56.432Z,8.78
2022-09-28T04:46:56.407Z,8.86
2022-09-28T04:47:57.330Z,8.87
2022-09-28T04:48:57.272Z,8.82
2022-09-28T04:49:57.879Z,8.84
2022-09-28T04:50:58.792Z,8.79
2022-09-28T04:51:58.974Z,8.79
2022-09-28T04:52:59.874Z,8.9
2022-09-28T04:54:00.213Z,8.9
2022-09-28T04:55:00.557Z,8.84
2022-09-28T04:56:02.057Z,8.9
2022-09-28T04:57:01.679Z,8.92
2022-09-28T04:58:02.693Z,8.95
2022-09-28T04:59:03.599Z,8.95
2022-09-28T05:00:03.740Z,8.96
2022-09-28T05:01:05.178Z,8.97
2022-09-28T05:02:05.781Z,8.82
2022-09-28T05:03:06.064Z,8.93
2022-09-28T05:04:05.997Z,8.92
2022-09-28T05:05:06.635Z,8.79
2022-09-28T05:06:07.829Z,8.77
2022-09-28T05:07:07.726Z,8.86
2022-09-28T05:08:08.425Z,8.93
2022-09-28T05:09:09.342Z,8.89
2022-09-28T05:10:09.466Z,8.89
2022-09-28T05:11:09.408Z,8.84
2022-09-28T05:12:09.623Z,8.81
2022-09-28T05:13:10.505Z,8.84
2022-09-28T05:14:11.440Z,8.82
2022-09-28T05:15:12.629Z,8.77
2022-09-28T05:16:13.721Z,8.89
2022-09-28T05:17:13.503Z,8.86
2022-09-28T05:18:14.793Z,8.9
2022-09-28T05:19:14.780Z,8.79
2022-09-28T05:20:15.810Z,8.79
2022-09-28T05:21:16.145Z,8.66
2022-09-28T05:22:17.168Z,8.64
2022-09-28T05:23:18.087Z,8.64
2022-09-28T05:24:18.588Z,8.64
2022-09-28T05:25:19.080Z,8.64
2022-09-28T05:26:19.023Z,8.61
2022-09-28T05:27:19.356Z,8.59
2022-09-28T05:28:20.484Z,8.64
2022-09-28T05:29:21.111Z,8.63
2022-09-28T05:30:20.897Z,8.61
2022-09-28T05:31:21.785Z,8.57
2022-09-28T05:32:21.987Z,8.54
2022-09-28T05:33:22.488Z,8.57
2022-09-28T05:34:22.753Z,8.46
2022-09-28T05:35:23.704Z,8.5
2022-09-28T05:36:24.031Z,8.56
2022-09-28T05:37:24.926Z,8.49
2022-09-28T05:38:25.227Z,8.56
2022-09-28T05:39:25.148Z,8.5
2022-09-28T05:40:25.976Z,8.53
2022-09-28T05:41:26.301Z,8.54
2022-09-28T05:42:27.218Z,8.71
2022-09-28T05:43:27.509Z,8.64
2022-09-28T05:44:27.826Z,8.61
2022-09-28T05:45:28.079Z,8.64
2022-09-28T05:46:28.751Z,8.61
2022-09-28T05:47:28.682Z,8.64
2022-09-28T05:48:29.674Z,8.59
2022-09-28T05:49:30.181Z,8.64
2022-09-28T05:50:30.394Z,8.61
2022-09-28T05:51:30.609Z,8.57
2022-09-28T05:52:31.526Z,8.71
2022-09-28T05:53:32.430Z,8.68
2022-09-28T05:54:33.612Z,8.75
2022-09-28T05:55:34.061Z,8.74
2022-09-28T05:56:34.442Z,8.77
2022-09-28T05:57:34.637Z,8.79
2022-09-28T05:58:35.392Z,8.82
2022-09-28T05:59:35.309Z,8.92
2022-09-28T06:00:36.233Z,9.03
2022-09-28T06:01:36.779Z,9
2022-09-28T06:02:37.017Z,9
2022-09-28T06:03:37.165Z,9.03
2022-09-28T06:04:37.832Z,9.02
2022-09-28T06:05:38.865Z,9.09
2022-09-28T06:06:39.539Z,9.13
2022-09-28T06:07:40.171Z,9.22
2022-09-28T06:08:41.232Z,9.24
2022-09-28T06:09:41.722Z,9.13
2022-09-28T06:10:42.333Z,9.16
2022-09-28T06:11:42.553Z,9.22
2022-09-28T06:12:43.738Z,9.3
2022-09-28T06:13:43.653Z,9.29
2022-09-28T06:14:44.313Z,9.26
2022-09-28T06:15:45.213Z,9.26
2022-09-28T06:16:49.614Z,9.27
2022-09-28T06:17:45.666Z,9.31
2022-09-28T06:18:46.696Z,9.34
2022-09-28T06:19:46.359Z,9.37
2022-09-28T06:20:47.004Z,9.36
2022-09-28T06:21:48.216Z,9.39
2022-09-28T06:22:48.493Z,9.37
2022-09-28T06:23:54.661Z,9.33
2022-09-28T06:24:49.858Z,9.36
2022-09-28T06:25:50.195Z,9.39
2022-09-28T06:26:50.848Z,9.37
2022-09-28T06:27:51.760Z,9.37
2022-09-28T06:28:52.747Z,9.4
2022-09-28T06:29:53.662Z,9.39
2022-09-28T06:30:54.305Z,9.36
2022-09-28T06:31:54.737Z,9.4
2022-09-28T06:32:54.639Z,9.39
2022-09-28T06:33:55.256Z,9.42
2022-09-28T06:35:01.431Z,9.44
2022-09-28T06:35:57.343Z,9.49
2022-09-28T06:36:57.681Z,9.47
2022-09-28T06:37:58.606Z,9.55
2022-09-28T06:38:59.204Z,9.58
2022-09-28T06:39:59.420Z,9.52
2022-09-28T06:40:59.760Z,9.55
2022-09-28T06:42:00.076Z,9.55
2022-09-28T06:43:00.392Z,9.63
2022-09-28T06:44:01.030Z,9.51
2022-09-28T06:45:01.527Z,9.48
2022-09-28T06:46:01.691Z,9.52
2022-09-28T06:47:01.604Z,9.49
2022-09-28T06:48:01.805Z,9.56
2022-09-28T06:49:02.534Z,9.52
2022-09-28T06:50:03.213Z,9.49
2022-09-28T06:51:04.407Z,9.56
2022-09-28T06:52:04.317Z,9.45
2022-09-28T06:53:05.250Z,9.66
2022-09-28T06:54:06.249Z,9.58
2022-09-28T06:55:07.513Z,9.59
2022-09-28T06:56:08.084Z,9.55
2022-09-28T06:57:08.596Z,9.62
2022-09-28T06:58:08.809Z,9.62
2022-09-28T06:59:08.824Z,9.66
2022-09-28T07:00:09.434Z,9.67
2022-09-28T07:01:10.388Z,9.63
2022-09-28T07:02:11.786Z,9.73
2022-09-28T07:03:12.336Z,9.63
2022-09-28T07:04:12.850Z,9.7
2022-09-28T07:05:13.536Z,9.66
2022-09-28T07:06:13.476Z,9.74
2022-09-28T07:07:14.402Z,9.73
2022-09-28T07:08:15.045Z,9.64
2022-09-28T07:09:49.494Z,9.76
2022-09-28T07:10:37.151Z,9.72
2022-09-28T07:11:37.650Z,9.74
2022-09-28T07:12:38.159Z,9.74
2022-09-28T07:14:18.605Z,9.87
2022-09-28T07:14:59.830Z,9.76
2022-09-28T07:15:58.877Z,9.84
2022-09-28T07:17:18.665Z,9.7
2022-09-28T07:18:07.988Z,9.85
2022-09-28T07:18:59.897Z,9.82
2022-09-28T07:20:18.610Z,9.85
2022-09-28T07:21:01.495Z,9.84
2022-09-28T07:22:13.052Z,9.84
2022-09-28T07:23:19.560Z,9.84
2022-09-28T07:24:03.362Z,9.82
2022-09-28T07:25:03.712Z,9.84
2022-09-28T07:26:09.117Z,9.91
2022-09-28T07:27:04.863Z,9.87
2022-09-28T07:28:06.084Z,9.85
2022-09-28T07:29:06.942Z,9.85
2022-09-28T07:30:07.396Z,9.88
2022-09-28T07:31:07.826Z,9.92
2022-09-28T07:32:08.314Z,9.92
2022-09-28T07:33:09.300Z,9.94
2022-09-28T07:34:09.252Z,9.84
2022-09-28T07:35:10.285Z,9.84
2022-09-28T07:36:11.206Z,9.85
2022-09-28T07:37:11.730Z,9.91
2022-09-28T07:38:12.159Z,9.92
2022-09-28T07:39:13.113Z,9.92
2022-09-28T07:40:14.203Z,9.94
2022-09-28T07:41:14.729Z,9.91
2022-09-28T07:42:14.677Z,9.99
2022-09-28T07:43:15.667Z,10.02
2022-09-28T07:44:16.614Z,10.06
2022-09-28T07:45:17.296Z,10.05
2022-09-28T07:46:18.541Z,10.1
2022-09-28T07:47:18.567Z,10.05
2022-09-28T07:48:18.960Z,10.09
2022-09-28T07:49:19.726Z,10.09
2022-09-28T07:50:20.308Z,10.12
2022-09-28T07:51:20.224Z,10.13
2022-09-28T07:52:21.447Z,10.12
2022-09-28T07:53:22.665Z,10.1
2022-09-28T07:54:22.555Z,10.2
2022-09-28T07:55:23.171Z,10.27
2022-09-28T07:56:23.771Z,10.25
2022-09-28T07:57:24.688Z,10.2
2022-09-28T07:58:25.368Z,10.28
2022-09-28T07:59:26.282Z,10.24
2022-09-28T08:00:33.884Z,10.3
2022-09-28T08:01:28.458Z,10.34
2022-09-28T08:02:28.889Z,10.3
2022-09-28T08:03:29.475Z,10.38
2022-09-28T08:04:29.966Z,10.39
2022-09-28T08:05:30.461Z,10.33
2022-09-28T08:06:31.362Z,10.48
2022-09-28T08:07:31.027Z,10.48
2022-09-28T08:08:31.655Z,10.38
2022-09-28T08:09:32.600Z,10.58
2022-09-28T08:10:33.044Z,10.57
2022-09-28T08:11:33.103Z,10.53
2022-09-28T08:12:34.020Z,10.55
2022-09-28T08:13:34.962Z,10.48
2022-09-28T08:14:35.156Z,10.55
2022-09-28T08:15:35.373Z,10.57
2022-09-28T08:17:35.669Z,10.53
2022-09-28T08:18:35.987Z,10.58
2022-09-28T08:19:36.924Z,10.51
2022-09-28T08:20:37.293Z,10.58
2022-09-28T08:21:37.493Z,10.57
2022-09-28T08:22:38.028Z,10.65
2022-09-28T08:23:38.241Z,10.62
2022-09-28T08:24:38.731Z,10.65
2022-09-28T08:25:39.030Z,10.65
2022-09-28T08:26:39.961Z,10.69
2022-09-28T08:27:40.188Z,10.67
2022-09-28T08:28:41.123Z,10.62
2022-09-28T08:29:41.762Z,10.65
2022-09-28T08:30:43.104Z,10.65
2022-09-28T08:31:43.419Z,10.67
2022-09-28T08:32:44.385Z,10.65
2022-09-28T08:33:44.650Z,10.61
2022-09-28T08:34:45.840Z,10.69
2022-09-28T08:35:45.758Z,10.64
2022-09-28T08:36:45.699Z,10.59
2022-09-28T08:37:55.553Z,10.62
2022-09-28T08:38:47.938Z,10.68
2022-09-28T08:39:48.189Z,10.59
2022-09-28T08:40:48.952Z,10.68
2022-09-28T08:41:49.474Z,10.59
2022-09-28T08:42:50.180Z,10.59
2022-09-28T08:43:50.910Z,10.59
2022-09-28T08:44:50.878Z,10.58
2022-09-28T08:45:51.944Z,10.59
2022-09-28T08:46:52.324Z,10.71
2022-09-28T08:47:52.645Z,10.69
2022-09-28T08:49:31.207Z,10.71
2022-09-28T08:50:55.046Z,10.76
2022-09-28T08:51:54.955Z,10.79
2022-09-28T08:52:55.331Z,10.76
2022-09-28T08:53:55.531Z,10.79
2022-09-28T08:54:56.448Z,10.77
2022-09-28T08:55:58.097Z,10.76
2022-09-28T08:56:58.081Z,10.82
2022-09-28T08:57:59.363Z,10.9
2022-09-28T08:58:59.631Z,10.9
2022-09-28T09:00:00.260Z,10.89
2022-09-28T09:01:01.362Z,10.92
2022-09-28T09:02:04.207Z,10.95
2022-09-28T09:03:01.654Z,10.8
2022-09-28T09:04:02.913Z,10.87
2022-09-28T09:05:02.848Z,11
2022-09-28T09:06:04.051Z,10.87
2022-09-28T09:07:05.031Z,10.92
2022-09-28T09:08:05.005Z,10.89
2022-09-28T09:09:05.934Z,10.87
2022-09-28T09:10:06.983Z,10.84
2022-09-28T09:11:07.022Z,10.87
2022-09-28T09:12:07.314Z,10.98
2022-09-28T09:13:08.837Z,10.83
2022-09-28T09:14:09.365Z,10.82
2022-09-28T09:15:10.035Z,10.77
2022-09-28T09:16:10.574Z,10.86
2022-09-28T09:17:10.810Z,10.83
2022-09-28T09:18:13.785Z,10.95
2022-09-28T09:19:12.565Z,10.86
2022-09-28T09:20:12.682Z,11.04
2022-09-28T09:21:13.329Z,10.92
2022-09-28T09:22:13.555Z,10.92
2022-09-28T09:23:14.597Z,10.95
2022-09-28T09:24:14.471Z,10.89
2022-09-28T09:25:14.165Z,10.97
2022-09-28T09:26:22.316Z,10.9
2022-09-28T09:27:16.282Z,10.89
2022-09-28T09:28:15.899Z,10.98
2022-09-28T09:29:17.440Z,10.92
2022-09-28T09:30:20.686Z,10.94
2022-09-28T09:31:23.108Z,11
2022-09-28T09:32:19.361Z,11.05
2022-09-28T09:33:19.312Z,11.05
2022-09-28T09:34:20.058Z,10.98
2022-09-28T09:35:28.147Z,11.12
2022-09-28T09:36:21.156Z,11.15
2022-09-28T09:37:22.410Z,11.19
2022-09-28T09:38:22.351Z,11.19
2022-09-28T09:39:23.565Z,11.26
2022-09-28T09:40:23.816Z,11.35
2022-09-28T09:41:25.393Z,11.38
2022-09-28T09:42:25.365Z,11.31
2022-09-28T09:43:31.678Z,11.34
2022-09-28T09:44:26.657Z,11.41
2022-09-28T09:45:26.952Z,11.48
2022-09-28T09:46:27.435Z,11.44
2022-09-28T09:47:28.070Z,11.48
2022-09-28T09:48:29.259Z,11.4
2022-09-28T09:49:29.516Z,11.41
2022-09-28T09:50:30.919Z,11.38
2022-09-28T09:51:30.959Z,11.4
2022-09-28T09:52:31.001Z,11.3
2022-09-28T09:53:38.441Z,11.33
2022-09-28T09:54:32.447Z,11.34
2022-09-28T09:55:35.579Z,11.37
2022-09-28T09:56:33.847Z,11.33
2022-09-28T09:57:33.782Z,11.43
2022-09-28T09:58:34.256Z,11.4
2022-09-28T09:59:35.278Z,11.4
2022-09-28T10:00:35.791Z,11.41
2022-09-28T10:01:36.040Z,11.44
2022-09-28T10:02:37.001Z,11.41
2022-09-28T10:03:36.975Z,11.51
2022-09-28T10:04:38.160Z,11.51
2022-09-28T10:05:38.791Z,11.48
2022-09-28T10:06:39.268Z,11.49
2022-09-28T10:07:43.792Z,11.48
2022-09-28T10:08:40.040Z,11.49
2022-09-28T10:09:40.238Z,11.49
2022-09-28T10:10:40.171Z,11.55
2022-09-28T10:11:41.202Z,11.59
2022-09-28T10:12:42.132Z,11.55
2022-09-28T10:13:42.300Z,11.51
2022-09-28T10:14:42.803Z,11.56
2022-09-28T10:15:43.303Z,11.6
2022-09-28T10:16:44.110Z,11.58
2022-09-28T10:17:44.781Z,11.63
2022-09-28T10:18:44.426Z,11.67
2022-09-28T10:19:45.608Z,11.59
2022-09-28T10:20:46.322Z,11.62
2022-09-28T10:21:46.746Z,11.56
2022-09-28T10:22:47.261Z,11.55
2022-09-28T10:23:47.709Z,11.58
2022-09-28T10:24:48.475Z,11.41
2022-09-28T10:25:48.964Z,11.56
2022-09-28T10:26:49.920Z,11.58
2022-09-28T10:27:50.138Z,11.55
2022-09-28T10:28:50.366Z,11.6
2022-09-28T10:29:50.328Z,11.67
2022-09-28T10:30:51.538Z,11.53
2022-09-28T10:31:51.890Z,11.65
2022-09-28T10:32:52.808Z,11.68
2022-09-28T10:33:53.422Z,11.65
2022-09-28T10:34:57.062Z,11.63
2022-09-28T10:35:55.289Z,11.67
2022-09-28T10:36:55.206Z,11.74
2022-09-28T10:37:55.744Z,11.71
2022-09-28T10:38:56.274Z,11.73
2022-09-28T10:39:56.891Z,11.81
2022-09-28T10:40:58.422Z,11.78
2022-09-28T10:41:58.668Z,11.81
2022-09-28T10:42:59.880Z,11.86
2022-09-28T10:44:03.822Z,11.88
2022-09-28T10:45:01.418Z,11.96
2022-09-28T10:46:01.583Z,12.02
2022-09-28T10:47:02.368Z,12.1
2022-09-28T10:48:03.280Z,12.1
2022-09-28T10:49:03.478Z,12.08
2022-09-28T10:50:03.824Z,12.07
2022-09-28T10:51:05.071Z,12.15
2022-09-28T10:52:05.500Z,12.21
2022-09-28T10:53:06.404Z,12.32
2022-09-28T10:54:07.633Z,12.3
2022-09-28T10:55:08.044Z,12.21
2022-09-28T10:56:08.699Z,12.18
2022-09-28T10:57:13.932Z,12.32
2022-09-28T10:58:10.565Z,12.32
2022-09-28T10:59:10.786Z,12.29
2022-09-28T11:00:11.795Z,12.37
2022-09-28T11:01:12.195Z,12.39
2022-09-28T11:02:13.230Z,12.36
2022-09-28T11:03:13.256Z,12.33
2022-09-28T11:04:13.599Z,12.37
2022-09-28T11:05:14.981Z,12.37
2022-09-28T11:06:14.912Z,12.43
2022-09-28T11:07:17.961Z,12.33
2022-09-28T11:08:16.567Z,12.43
2022-09-28T11:09:17.864Z,12.37
2022-09-28T11:10:18.485Z,12.39
2022-09-28T11:11:19.708Z,12.43
2022-09-28T11:12:20.308Z,12.4
2022-09-28T11:13:20.676Z,12.54
2022-09-28T11:14:20.874Z,12.54
2022-09-28T11:15:21.667Z,12.53
2022-09-28T11:16:22.726Z,12.61
2022-09-28T11:17:22.749Z,12.68
2022-09-28T11:18:23.686Z,12.69
2022-09-28T11:19:23.849Z,12.66
2022-09-28T11:20:28.675Z,12.63
2022-09-28T11:21:24.838Z,12.65
2022-09-28T11:22:24.653Z,12.58
2022-09-28T11:23:26.162Z,12.65
2022-09-28T11:24:27.701Z,12.73
2022-09-28T11:25:27.066Z,12.68
2022-09-28T11:26:27.707Z,12.8
2022-09-28T11:27:27.927Z,12.73
2022-09-28T11:28:28.154Z,12.8
2022-09-28T11:29:29.074Z,12.81
2022-09-28T11:30:29.497Z,12.83
2022-09-28T11:31:29.384Z,12.87
2022-09-28T11:32:30.231Z,12.76
2022-09-28T11:33:30.876Z,12.8
2022-09-28T11:35:00.348Z,12.87
2022-09-28T11:35:31.667Z,12.91
2022-09-28T11:36:32.892Z,12.93
2022-09-28T11:37:33.072Z,13.06
2022-09-28T11:38:34.011Z,13.02
2022-09-28T11:39:34.572Z,12.98
2022-09-28T11:40:35.365Z,13.02
2022-09-28T11:41:35.558Z,13.02
2022-09-28T11:42:36.994Z,13.06
2022-09-28T11:43:37.261Z,13.17
2022-09-28T11:44:39.040Z,13.08
2022-09-28T11:45:37.907Z,13.08
2022-09-28T11:46:38.623Z,13.05
2022-09-28T11:47:38.852Z,13.05
2022-09-28T11:48:39.460Z,13.03
2022-09-28T11:49:40.379Z,13.02
2022-09-28T11:50:41.305Z,13.08
2022-09-28T11:51:41.829Z,13.06
2022-09-28T11:52:42.567Z,13.12
2022-09-28T11:53:43.187Z,13.19
2022-09-28T11:54:43.148Z,13.19
2022-09-28T11:55:44.350Z,13.2
2022-09-28T11:56:44.840Z,13.31
2022-09-28T11:57:44.757Z,13.24
2022-09-28T11:58:45.951Z,13.28
2022-09-28T11:59:46.609Z,13.45
2022-09-28T12:00:46.839Z,13.42
2022-09-28T12:01:47.185Z,13.54
2022-09-28T12:02:47.837Z,13.58
2022-09-28T12:03:48.884Z,13.6
2022-09-28T12:04:49.253Z,13.64
2022-09-28T12:05:50.158Z,13.67
2022-09-28T12:06:50.391Z,13.91
2022-09-28T12:07:51.317Z,14.07
2022-09-28T12:08:52.277Z,14.15
2022-09-28T12:09:52.233Z,14.26
2022-09-28T12:10:53.481Z,14.25
2022-09-28T12:11:54.387Z,14.25
2022-09-28T12:12:54.564Z,14.31
2022-09-28T12:13:55.520Z,14.19
2022-09-28T12:14:55.724Z,14.18
2022-09-28T12:17:06.155Z,14.15
2022-09-28T12:17:28.279Z,14.15
2022-09-28T12:18:28.697Z,14.15
2022-09-28T12:19:28.693Z,14.07
2022-09-28T12:20:28.931Z,14.23
2022-09-28T12:21:29.679Z,14.36
2022-09-28T12:22:29.648Z,14.38
2022-09-28T12:23:30.800Z,14.28
2022-09-28T12:24:31.020Z,14.4
2022-09-28T12:25:31.555Z,14.38
2022-09-28T12:26:38.051Z,14.31
2022-09-28T12:27:33.270Z,14.38
2022-09-28T12:28:33.178Z,14.34
2022-09-28T12:29:34.379Z,14.25
2022-09-28T12:30:35.115Z,14.38
2022-09-28T12:31:35.657Z,14.28
2022-09-28T12:32:35.883Z,14.23
2022-09-28T12:33:36.900Z,14.19
2022-09-28T12:34:37.400Z,14.18
2022-09-28T12:35:37.896Z,14.22
2022-09-28T12:36:38.826Z,14.19
2022-09-28T12:37:39.163Z,14.2
2022-09-28T12:38:39.506Z,14.15
2022-09-28T12:40:03.128Z,14.08
2022-09-28T12:40:40.452Z,14.03
2022-09-28T12:41:41.863Z,13.97
2022-09-28T12:42:42.060Z,13.97
2022-09-28T12:43:42.472Z,13.89
2022-09-28T12:44:42.675Z,13.87
2022-09-28T12:46:13.046Z,13.89
2022-09-28T12:46:44.796Z,13.95
2022-09-28T12:47:44.940Z,13.89
2022-09-28T12:49:37.025Z,13.97
2022-09-28T12:51:03.733Z,13.85
2022-09-28T12:52:01.233Z,13.82
2022-09-28T12:53:05.342Z,13.79
2022-09-28T12:54:01.368Z,13.79
2022-09-28T12:55:01.964Z,13.76
2022-09-28T12:56:02.627Z,13.85
2022-09-28T12:57:02.932Z,13.85
2022-09-28T12:58:03.566Z,13.87
2022-09-28T12:59:04.513Z,13.82
2022-09-28T13:00:04.621Z,13.83
2022-09-28T13:01:05.408Z,13.83
2022-09-28T13:02:05.654Z,13.85
2022-09-28T13:03:06.263Z,13.8
2022-09-28T13:04:11.358Z,13.76
2022-09-28T13:05:07.111Z,13.83
2022-09-28T13:06:08.055Z,13.76
2022-09-28T13:07:09.274Z,13.78
2022-09-28T13:08:09.502Z,13.79
2022-09-28T13:09:09.418Z,13.83
2022-09-28T13:10:11.029Z,13.73
2022-09-28T13:11:13.974Z,13.76
2022-09-28T13:12:11.553Z,13.76
2022-09-28T13:13:11.766Z,13.73
2022-09-28T13:14:12.682Z,13.73
2022-09-28T13:15:13.686Z,13.65
2022-09-28T13:16:13.821Z,13.64
2022-09-28T13:17:14.747Z,13.64
2022-09-28T13:18:15.297Z,13.55
2022-09-28T13:19:15.712Z,13.64
2022-09-28T13:20:16.113Z,13.65
2022-09-28T13:21:17.014Z,13.6